Time;durP1;ratioP1;P1;durP2;ratioP2;P2;SDS_P1;SDS_P2;PMS_P1;PMS_P2;Temp;Humidity;BMP_temperature;BMP_pressure;BME280_temperature;BME280_humidity;BME280_pressure;Samples;Min_cycle;Max_cycle;Signal;HPM_P1;HPM_P2
2022/06/27 00:01:51;;;;;;;6.10;1.30;;;;;;;14.00;53.97;100600.91;5109471;28;20468;-51
2022/06/27 00:04:17;;;;;;;5.57;1.75;;;;;;;14.00;53.51;100598.22;5111041;28;20447;-50
2022/06/27 00:06:43;;;;;;;7.90;1.50;;;;;;;14.16;53.05;100610.41;5110918;28;20103;-49
2022/06/27 00:09:08;;;;;;;6.13;1.25;;;;;;;14.06;53.21;100600.06;5110717;28;20028;-49
2022/06/27 00:11:34;;;;;;;6.25;1.30;;;;;;;14.07;53.74;100616.03;5109236;28;20114;-49
2022/06/27 00:14:00;;;;;;;4.03;1.52;;;;;;;13.93;54.77;100609.06;5092518;28;20083;-51
2022/06/27 00:16:26;;;;;;;7.05;1.40;;;;;;;13.96;54.97;100611.31;5108646;28;20347;-49
2022/06/27 00:18:51;;;;;;;6.75;1.30;;;;;;;13.81;55.26;100597.25;5110795;28;20028;-50
2022/06/27 00:21:17;;;;;;;8.50;1.50;;;;;;;13.88;55.29;100614.25;5108688;28;20470;-52
2022/06/27 00:23:44;;;;;;;4.60;1.23;;;;;;;13.82;54.63;100604.28;5110833;28;20378;-49
2022/06/27 00:26:09;;;;;;;10.43;1.58;;;;;;;13.94;54.93;100624.19;5109977;28;20066;-49
2022/06/27 00:28:35;;;;;;;2.72;0.90;;;;;;;13.88;54.19;100608.84;5110470;28;20030;-49
2022/06/27 00:31:01;;;;;;;5.78;1.10;;;;;;;13.79;55.58;100619.03;5108965;28;20086;-49
2022/06/27 00:33:26;;;;;;;5.97;1.13;;;;;;;13.77;56.10;100612.19;5110568;28;20040;-49
2022/06/27 00:35:53;;;;;;;5.13;1.50;;;;;;;13.74;55.82;100611.59;5110033;28;20042;-49
2022/06/27 00:38:19;;;;;;;8.02;1.45;;;;;;;13.75;56.10;100618.63;5109868;28;20106;-49
2022/06/27 00:40:45;;;;;;;8.00;1.58;;;;;;;13.51;57.66;100606.63;5109881;28;20032;-50
2022/06/27 00:43:10;;;;;;;4.82;1.23;;;;;;;13.42;57.60;100609.75;5110177;28;20031;-49
2022/06/27 00:45:36;;;;;;;7.90;1.48;;;;;;;13.41;57.44;100610.78;5110053;28;20115;-49
2022/06/27 00:48:02;;;;;;;8.00;1.30;;;;;;;13.51;57.78;100619.28;5110081;28;20024;-49
2022/06/27 00:50:28;;;;;;;3.58;1.20;;;;;;;13.51;57.53;100624.69;5108734;28;20020;-49
2022/06/27 00:52:53;;;;;;;8.52;1.27;;;;;;;13.62;57.25;100626.75;5109458;28;20382;-49
2022/06/27 00:55:19;;;;;;;3.03;1.00;;;;;;;13.16;57.75;100569.06;5110134;28;20395;-49
2022/06/27 00:57:45;;;;;;;9.73;1.40;;;;;;;13.52;58.24;100632.59;5110050;28;20027;-50
2022/06/27 01:00:11;;;;;;;5.72;1.25;;;;;;;13.31;58.31;100603.94;5108194;28;20491;-50
2022/06/27 01:02:37;;;;;;;9.52;1.70;;;;;;;13.38;59.02;100625.53;5108327;28;20092;-49
2022/06/27 01:05:05;;;;;;;4.93;0.95;;;;;;;13.32;59.22;100620.97;5110032;28;20419;-52
2022/06/27 01:07:31;;;;;;;6.35;1.15;;;;;;;13.32;58.93;100634.47;5109499;28;20447;-51
2022/06/27 01:10:00;;;;;;;8.43;1.30;;;;;;;13.25;59.32;100630.91;5109602;28;20060;-50
2022/06/27 01:12:25;;;;;;;9.25;1.85;;;;;;;13.26;59.57;100637.94;5109990;28;20031;-49
2022/06/27 01:14:51;;;;;;;7.07;1.33;;;;;;;13.07;60.49;100616.13;5109548;28;20047;-49
2022/06/27 01:17:17;;;;;;;10.38;1.63;;;;;;;13.04;61.00;100621.97;5108595;28;20106;-49
2022/06/27 01:19:43;;;;;;;2.08;0.80;;;;;;;13.13;59.74;100627.97;5109666;28;20444;-49
2022/06/27 01:22:10;;;;;;;8.30;1.50;;;;;;;13.01;61.17;100627.75;5110237;28;20035;-51
2022/06/27 01:24:37;;;;;;;5.78;1.17;;;;;;;13.02;59.99;100629.44;5109557;28;20036;-50
2022/06/27 01:27:04;;;;;;;8.48;1.45;;;;;;;13.06;60.19;100624.47;5108063;28;20028;-50
2022/06/27 01:29:30;;;;;;;7.78;1.40;;;;;;;13.00;60.25;100619.88;5109392;28;20024;-49
2022/06/27 01:31:56;;;;;;;6.00;1.13;;;;;;;13.05;60.39;100637.09;5107846;28;20023;-50
2022/06/27 01:34:22;;;;;;;4.63;0.90;;;;;;;12.95;59.69;100626.72;5109375;28;20119;-51
2022/06/27 01:36:47;;;;;;;8.90;1.20;;;;;;;12.96;60.84;100639.19;5109332;28;20083;-49
2022/06/27 01:39:18;;;;;;;7.70;1.45;;;;;;;12.87;61.01;100626.94;5108194;28;20061;-53
2022/06/27 01:41:47;;;;;;;7.88;1.50;;;;;;;13.00;60.87;100633.34;5109816;28;20035;-53
2022/06/27 01:44:14;;;;;;;5.35;1.33;;;;;;;13.00;60.32;100626.13;5108331;28;20483;-52
2022/06/27 01:46:46;;;;;;;4.38;1.08;;;;;;;12.95;60.36;100633.97;5109679;28;20038;-51
2022/06/27 01:49:13;;;;;;;8.85;1.55;;;;;;;12.86;61.45;100630.63;5109683;28;20344;-53
2022/06/27 01:51:41;;;;;;;5.10;1.05;;;;;;;12.88;60.58;100625.88;5109290;28;20039;-50
2022/06/27 01:54:08;;;;;;;8.07;1.42;;;;;;;12.78;61.19;100639.75;5108009;28;20378;-49
2022/06/27 01:56:34;;;;;;;6.10;1.38;;;;;;;12.76;62.03;100630.22;5107528;28;20050;-49
2022/06/27 01:59:00;;;;;;;10.48;1.60;;;;;;;12.49;63.58;100619.34;5109229;28;20031;-50
2022/06/27 02:01:27;;;;;;;4.10;1.17;;;;;;;12.61;62.94;100640.31;5109469;28;20082;-51
2022/06/27 02:03:54;;;;;;;6.20;1.33;;;;;;;12.56;62.81;100641.75;5109039;28;20035;-50
2022/06/27 02:06:20;;;;;;;4.65;1.02;;;;;;;12.52;63.35;100642.38;5114584;28;20046;-49
2022/06/27 02:08:47;;;;;;;7.05;1.17;;;;;;;12.34;63.20;100624.91;5113387;28;20075;-49
2022/06/27 02:11:14;;;;;;;4.18;1.10;;;;;;;12.45;63.48;100645.03;5113621;28;20112;-48
2022/06/27 02:13:41;;;;;;;6.72;1.45;;;;;;;12.43;62.51;100633.63;5114895;28;20062;-50
2022/06/27 02:16:11;;;;;;;3.55;1.02;;;;;;;12.33;62.50;100623.25;5114890;28;20038;-52
2022/06/27 02:18:38;;;;;;;5.70;1.08;;;;;;;12.42;62.68;100648.13;5113026;28;20035;-52
2022/06/27 02:21:04;;;;;;;5.78;1.23;;;;;;;12.40;62.90;100639.41;5113176;28;20432;-50
2022/06/27 02:23:30;;;;;;;6.65;1.27;;;;;;;12.38;62.86;100636.91;5111577;28;20035;-49
2022/06/27 02:25:56;;;;;;;5.28;1.23;;;;;;;12.27;64.06;100639.38;5111710;28;20043;-49
2022/06/27 02:28:25;;;;;;;6.68;1.30;;;;;;;12.26;64.36;100635.00;5113310;28;20384;-49
2022/06/27 02:30:51;;;;;;;7.47;1.30;;;;;;;12.01;64.59;100616.66;5113170;28;20024;-51
2022/06/27 02:33:17;;;;;;;5.28;1.25;;;;;;;12.04;65.76;100639.69;5112786;28;20027;-50
2022/06/27 02:35:45;;;;;;;14.68;3.83;;;;;;;12.07;64.53;100637.44;5111495;28;20058;-51
2022/06/27 02:38:11;;;;;;;4.90;1.17;;;;;;;12.12;64.70;100643.03;5111106;28;20027;-51
2022/06/27 02:40:39;;;;;;;7.78;1.55;;;;;;;12.04;65.65;100642.38;5112432;28;20032;-51
2022/06/27 02:43:08;;;;;;;3.25;1.40;;;;;;;11.98;65.63;100628.69;5110693;28;20396;-49
2022/06/27 02:45:36;;;;;;;5.25;1.17;;;;;;;12.02;64.55;100629.13;5112340;28;20034;-51
2022/06/27 02:48:02;;;;;;;4.15;1.20;;;;;;;12.08;64.21;100628.31;5112311;28;20027;-49
2022/06/27 02:50:32;;;;;;;7.00;1.50;;;;;;;12.14;64.24;100640.97;5110915;28;20024;-50
2022/06/27 02:53:02;;;;;;;3.88;1.10;;;;;;;12.17;63.76;100635.19;5112605;28;20126;-49
2022/06/27 02:55:34;;;;;;;7.43;1.48;;;;;;;12.10;64.33;100622.72;5111005;28;20080;-48
2022/06/27 02:58:08;;;;;;;4.45;1.15;;;;;;;12.16;64.51;100632.69;5110861;28;20035;-50
2022/06/27 03:00:38;;;;;;;8.93;1.57;;;;;;;12.09;65.54;100634.50;5111299;28;20077;-49
2022/06/27 03:03:06;;;;;;;5.43;1.20;;;;;;;12.08;64.81;100631.00;5111841;28;20057;-50
2022/06/27 03:05:32;;;;;;;7.22;0.90;;;;;;;12.03;65.51;100624.56;5112250;28;20032;-52
2022/06/27 03:07:58;;;;;;;9.65;1.30;;;;;;;11.97;65.46;100624.31;5111792;28;20497;-51
2022/06/27 03:10:24;;;;;;;5.30;1.20;;;;;;;11.97;65.58;100624.31;5111873;27;20046;-52
2022/06/27 03:12:50;;;;;;;7.00;1.30;;;;;;;11.92;66.08;100628.63;5110129;28;20027;-49
2022/06/27 03:15:17;;;;;;;5.55;1.20;;;;;;;11.87;66.64;100625.66;5111485;28;20092;-51
2022/06/27 03:17:42;;;;;;;7.65;1.50;;;;;;;11.81;65.94;100619.22;5111784;28;20039;-49
2022/06/27 03:20:09;;;;;;;4.80;1.25;;;;;;;11.88;66.92;100636.22;5111616;27;20176;-50
2022/06/27 03:22:35;;;;;;;4.97;1.20;;;;;;;11.82;67.33;100634.34;5111729;28;20088;-48
2022/06/27 03:25:01;;;;;;;7.82;1.60;;;;;;;11.61;68.62;100619.13;5111492;28;20075;-49
2022/06/27 03:27:26;;;;;;;8.70;1.52;;;;;;;11.72;67.85;100640.09;5110309;28;20082;-52
2022/06/27 03:29:52;;;;;;;5.53;1.30;;;;;;;11.70;68.74;100642.16;5111543;28;20136;-49
2022/06/27 03:32:18;;;;;;;6.57;1.20;;;;;;;11.67;68.12;100634.47;5111281;28;20476;-50
2022/06/27 03:34:44;;;;;;;9.65;1.60;;;;;;;11.67;68.08;100636.31;5111126;28;20095;-49
2022/06/27 03:37:10;;;;;;;5.45;1.20;;;;;;;11.65;68.56;100641.06;5111019;28;20070;-52
2022/06/27 03:39:36;;;;;;;12.27;1.95;;;;;;;11.45;69.27;100614.84;5111344;27;20111;-50
2022/06/27 03:42:01;;;;;;;4.10;1.48;;;;;;;11.43;67.55;100608.84;5109743;28;20031;-49
2022/06/27 03:44:29;;;;;;;10.95;1.70;;;;;;;11.67;68.26;100642.53;5109664;28;20221;-49
2022/06/27 03:46:54;;;;;;;7.95;1.30;;;;;;;11.70;67.02;100652.91;5111054;28;20031;-48
2022/06/27 03:52:06;;;;;;;5.10;1.45;;;;;;;11.60;67.88;100634.41;5110010;28;20442;-49
2022/06/27 03:54:32;;;;;;;5.60;1.48;;;;;;;11.69;68.23;100648.53;5111023;28;20106;-49
2022/06/27 03:56:58;;;;;;;7.68;1.40;;;;;;;11.69;67.89;100661.16;5109455;28;20039;-50
2022/06/27 03:59:23;;;;;;;5.18;1.30;;;;;;;11.57;68.13;100642.88;5108981;28;20039;-49
2022/06/27 04:01:49;;;;;;;5.43;1.20;;;;;;;11.66;67.98;100666.94;5109188;28;20107;-53
2022/06/27 04:04:15;;;;;;;5.80;2.10;;;;;;;11.64;69.36;100667.13;5109167;28;20051;-50
2022/06/27 04:06:41;;;;;;;8.95;1.42;;;;;;;11.58;69.23;100662.53;5109367;28;20035;-48
2022/06/27 04:09:06;;;;;;;3.90;1.38;;;;;;;11.60;68.73;100665.84;5110527;28;20379;-49
2022/06/27 04:11:32;;;;;;;8.02;1.30;;;;;;;11.41;70.16;100654.75;5110601;28;20086;-48
2022/06/27 04:13:58;;;;;;;5.10;1.42;;;;;;;11.36;71.01;100657.16;5109223;28;20062;-49
2022/06/27 04:16:23;;;;;;;7.43;1.15;;;;;;;11.02;71.33;100601.47;5110741;28;20119;-49
2022/06/27 04:18:49;;;;;;;6.97;2.50;;;;;;;11.33;71.62;100649.50;5108760;28;20034;-49
2022/06/27 04:21:15;;;;;;;9.30;1.60;;;;;;;11.41;70.56;100662.00;5110224;28;20068;-51
2022/06/27 04:23:40;;;;;;;8.40;1.50;;;;;;;11.37;71.28;100660.72;5110415;28;20031;-48
2022/06/27 04:26:06;;;;;;;11.13;1.48;;;;;;;11.41;71.45;100667.38;5109087;28;20036;-48
2022/06/27 04:28:32;;;;;;;7.05;1.42;;;;;;;11.43;71.49;100665.31;5110016;28;20019;-49
2022/06/27 04:30:58;;;;;;;5.93;1.08;;;;;;;11.36;72.18;100659.88;5110441;28;20031;-51
2022/06/27 04:33:24;;;;;;;6.85;1.83;;;;;;;11.38;71.57;100668.56;5110595;28;20115;-48
2022/06/27 04:35:50;;;;;;;11.25;1.60;;;;;;;11.39;71.61;100666.72;5110937;28;20116;-49
2022/06/27 04:38:19;;;;;;;7.07;1.65;;;;;;;11.42;72.20;100671.69;5109088;28;20066;-48
2022/06/27 04:40:45;;;;;;;8.85;1.67;;;;;;;11.36;70.86;100643.72;5110269;28;20175;-48
2022/06/27 04:43:11;;;;;;;5.32;1.30;;;;;;;11.13;71.43;100598.25;5110460;28;20075;-51
2022/06/27 04:45:37;;;;;;;8.23;2.08;;;;;;;11.45;70.80;100644.44;5110275;28;20035;-50
2022/06/27 04:48:05;;;;;;;6.68;1.52;;;;;;;11.49;71.03;100651.06;5110091;28;20384;-50
2022/06/27 04:50:32;;;;;;;8.35;1.52;;;;;;;11.59;71.71;100665.03;5108480;28;20028;-49
2022/06/27 04:53:00;;;;;;;8.43;1.52;;;;;;;11.96;69.68;100670.25;5110104;28;20032;-48
2022/06/27 04:55:26;;;;;;;6.07;1.48;;;;;;;12.05;70.24;100670.94;5110188;28;20333;-49
2022/06/27 04:57:52;;;;;;;7.43;1.55;;;;;;;11.84;71.01;100679.91;5110216;28;20114;-49
2022/06/27 05:00:19;;;;;;;10.02;1.58;;;;;;;11.71;72.02;100668.00;5108298;28;20028;-49
2022/06/27 05:02:45;;;;;;;6.65;1.55;;;;;;;11.53;71.99;100644.28;5109901;28;20450;-50
2022/06/27 05:05:11;;;;;;;14.38;1.48;;;;;;;11.71;71.85;100670.69;5109800;28;20135;-52
2022/06/27 05:07:37;;;;;;;10.25;1.67;;;;;;;11.75;72.10;100674.66;5109778;28;20035;-49
2022/06/27 05:10:03;;;;;;;10.05;1.88;;;;;;;11.75;72.85;100677.34;5109364;28;20051;-50
2022/06/27 05:12:30;;;;;;;12.35;1.77;;;;;;;11.81;72.08;100673.88;5091789;28;20098;-49
2022/06/27 05:14:55;;;;;;;6.22;1.80;;;;;;;11.75;72.17;100650.44;5108226;28;20376;-48
2022/06/27 05:17:23;;;;;;;6.03;1.58;;;;;;;11.90;71.68;100666.50;5110055;28;20119;-49
2022/06/27 05:19:50;;;;;;;10.63;2.30;;;;;;;11.92;72.68;100669.00;5107966;28;20031;-48
2022/06/27 05:22:16;;;;;;;12.88;1.60;;;;;;;11.97;72.12;100671.94;5109964;28;20031;-48
2022/06/27 05:24:42;;;;;;;7.05;1.40;;;;;;;11.94;71.99;100654.34;5108381;28;20141;-49
2022/06/27 05:27:09;;;;;;;7.63;1.40;;;;;;;12.04;72.57;100678.19;5109927;28;20032;-48
2022/06/27 05:29:36;;;;;;;6.28;1.20;;;;;;;11.98;71.89;100654.78;5109491;28;20032;-49
2022/06/27 05:32:03;;;;;;;8.60;1.48;;;;;;;12.14;71.20;100672.44;5109949;28;20076;-49
2022/06/27 05:34:29;;;;;;;13.48;2.20;;;;;;;12.14;71.89;100664.38;5109862;28;20328;-50
2022/06/27 05:36:55;;;;;;;15.70;2.10;;;;;;;12.20;72.10;100653.63;5109862;28;20077;-48
2022/06/27 05:39:21;;;;;;;13.88;1.85;;;;;;;12.13;72.07;100647.38;5111722;28;20035;-50
2022/06/27 05:41:48;;;;;;;10.63;1.73;;;;;;;12.25;71.57;100654.91;5113421;28;20039;-50
2022/06/27 05:44:14;;;;;;;9.52;2.08;;;;;;;12.18;72.60;100649.47;5113530;27;20028;-48
2022/06/27 05:46:41;;;;;;;13.18;1.80;;;;;;;12.33;72.43;100666.34;5111946;28;20448;-49
2022/06/27 05:49:08;;;;;;;11.00;1.85;;;;;;;12.29;72.55;100658.84;5111915;28;20024;-49
2022/06/27 05:51:35;;;;;;;14.02;2.00;;;;;;;12.36;72.27;100662.41;5113787;28;20032;-50
2022/06/27 05:54:01;;;;;;;10.55;1.60;;;;;;;12.48;72.20;100676.97;5113478;28;20095;-53
2022/06/27 05:56:28;;;;;;;8.05;1.75;;;;;;;12.52;72.08;100680.09;5113560;28;20095;-50
2022/06/27 05:58:55;;;;;;;13.55;2.13;;;;;;;12.59;71.92;100689.88;5112984;28;20032;-49
2022/06/27 06:01:22;;;;;;;7.30;1.60;;;;;;;12.65;71.78;100684.69;5113470;28;20031;-50
2022/06/27 06:03:48;;;;;;;7.55;1.63;;;;;;;12.64;70.71;100681.16;5113941;28;20076;-50
2022/06/27 06:06:16;;;;;;;10.07;1.55;;;;;;;12.70;71.09;100680.38;5112939;28;20076;-50
2022/06/27 06:08:43;;;;;;;8.73;1.92;;;;;;;12.72;70.42;100682.84;5112797;28;20208;-49
2022/06/27 06:11:10;;;;;;;14.85;1.95;;;;;;;12.76;69.89;100676.84;5112864;28;20087;-51
2022/06/27 06:13:36;;;;;;;6.70;1.80;;;;;;;12.79;69.86;100675.59;5113299;28;20405;-48
2022/06/27 06:16:06;;;;;;;8.70;1.80;;;;;;;12.90;70.15;100688.50;5111526;28;20034;-47
2022/06/27 06:18:33;;;;;;;11.57;1.80;;;;;;;12.93;69.80;100687.28;5112997;28;20111;-49
2022/06/27 06:20:59;;;;;;;6.05;1.85;;;;;;;12.95;69.41;100690.59;5111182;28;20027;-48
2022/06/27 06:23:25;;;;;;;10.98;1.80;;;;;;;12.71;69.59;100644.28;5113015;28;20055;-50
2022/06/27 06:25:52;;;;;;;7.28;1.35;;;;;;;13.02;69.75;100674.41;5113067;28;20027;-49
2022/06/27 06:28:18;;;;;;;10.38;1.75;;;;;;;13.04;69.09;100672.34;5112368;28;20079;-50
2022/06/27 06:30:44;;;;;;;11.23;1.95;;;;;;;13.07;68.52;100670.06;5112472;28;20035;-49
2022/06/27 06:33:10;;;;;;;11.77;1.75;;;;;;;13.21;68.21;100684.41;5112527;28;20053;-50
2022/06/27 06:35:36;;;;;;;6.35;1.55;;;;;;;13.28;67.97;100687.94;5111194;28;20028;-50
2022/06/27 06:38:03;;;;;;;11.98;1.90;;;;;;;12.86;68.17;100611.78;5112472;28;20111;-50
2022/06/27 06:40:30;;;;;;;9.45;1.88;;;;;;;13.43;67.53;100690.50;5112377;28;20451;-50
2022/06/27 06:42:55;;;;;;;7.90;1.45;;;;;;;13.46;66.89;100681.97;5110759;28;20047;-49
2022/06/27 06:45:22;;;;;;;12.95;2.10;;;;;;;13.52;66.65;100697.34;5112535;28;20028;-49
2022/06/27 06:47:50;;;;;;;7.50;1.60;;;;;;;13.60;66.58;100693.59;5110608;28;20097;-51
2022/06/27 06:50:18;;;;;;;12.25;1.80;;;;;;;13.72;65.82;100700.03;5111658;28;20036;-50
2022/06/27 06:52:49;;;;;;;12.13;1.95;;;;;;;13.67;64.88;100689.03;5112447;28;20041;-49
2022/06/27 06:55:16;;;;;;;9.55;1.52;;;;;;;13.83;64.31;100701.25;5112412;28;20106;-49
2022/06/27 06:57:42;;;;;;;9.77;1.40;;;;;;;13.87;64.20;100696.25;5112260;28;20425;-49
2022/06/27 07:00:09;;;;;;;10.32;1.92;;;;;;;13.56;63.95;100646.50;5112592;27;20035;-51
2022/06/27 07:02:36;;;;;;;8.60;2.03;;;;;;;13.92;64.11;100691.91;5112634;28;20023;-51
2022/06/27 07:05:08;;;;;;;10.07;1.67;;;;;;;13.87;63.56;100675.53;5093836;28;20110;-51
2022/06/27 07:07:34;;;;;;;11.05;1.92;;;;;;;14.05;63.28;100690.22;5112502;28;20035;-52
2022/06/27 07:10:01;;;;;;;8.30;1.75;;;;;;;13.88;62.62;100654.75;5111876;28;20119;-51
2022/06/27 07:12:29;;;;;;;9.32;1.88;;;;;;;14.08;62.71;100670.91;5110917;28;20072;-48
2022/06/27 07:14:56;;;;;;;4.50;1.42;;;;;;;14.11;62.63;100675.88;5110554;28;20032;-52
2022/06/27 07:17:25;;;;;;;15.23;1.95;;;;;;;14.14;62.36;100668.16;5111879;28;20028;-51
2022/06/27 07:19:53;;;;;;;6.50;1.40;;;;;;;14.39;62.04;100690.94;5077658;28;20027;-49
2022/06/27 07:22:20;;;;;;;11.45;1.42;;;;;;;14.45;61.29;100673.88;5111889;28;20400;-50
2022/06/27 07:24:47;;;;;;;10.05;1.92;;;;;;;14.40;60.98;100662.91;5112333;28;20023;-51
2022/06/27 07:27:15;;;;;;;5.68;1.20;;;;;;;14.56;60.46;100685.91;5111711;28;20027;-49
2022/06/27 07:29:41;;;;;;;7.82;1.80;;;;;;;14.63;60.44;100686.72;5111847;28;20028;-49
2022/06/27 07:32:08;;;;;;;7.93;1.63;;;;;;;14.69;59.84;100685.88;5111877;28;20040;-50
2022/06/27 07:34:34;;;;;;;8.52;1.50;;;;;;;14.87;59.05;100693.25;5111797;28;20031;-49
2022/06/27 07:37:00;;;;;;;9.48;1.38;;;;;;;14.94;58.69;100690.53;5112024;28;20034;-48
2022/06/27 07:39:26;;;;;;;10.63;1.90;;;;;;;15.02;58.85;100690.28;5111968;28;20387;-48
2022/06/27 07:41:53;;;;;;;9.57;1.55;;;;;;;15.18;58.36;100695.16;5110701;28;20471;-49
2022/06/27 07:44:19;;;;;;;9.55;1.30;;;;;;;15.15;57.81;100700.19;5111727;28;20129;-51
2022/06/27 07:46:45;;;;;;;10.57;1.83;;;;;;;15.22;57.64;100699.09;5111279;28;20110;-51
2022/06/27 07:49:11;;;;;;;7.70;1.27;;;;;;;15.24;56.24;100672.63;5111443;28;20028;-49
2022/06/27 07:51:36;;;;;;;8.35;1.15;;;;;;;15.46;56.00;100686.63;5093134;28;20421;-49
2022/06/27 07:54:03;;;;;;;10.52;1.50;;;;;;;15.21;55.83;100647.91;5111524;28;20114;-47
2022/06/27 07:56:28;;;;;;;10.70;1.42;;;;;;;15.53;55.34;100678.47;5111064;28;20050;-48
2022/06/27 07:58:54;;;;;;;8.65;1.40;;;;;;;15.68;55.66;100675.41;5111019;28;20432;-48
2022/06/27 08:01:21;;;;;;;8.35;1.35;;;;;;;15.86;54.14;100691.72;5110786;28;20114;-47
2022/06/27 08:03:49;;;;;;;6.35;1.15;;;;;;;15.93;53.87;100642.06;5110616;28;20046;-47
2022/06/27 08:06:20;;;;;;;6.90;1.15;;;;;;;16.60;52.96;100685.50;5111107;28;20065;-50
2022/06/27 08:08:48;;;;;;;9.57;1.50;;;;;;;17.06;51.91;100692.19;5109678;28;20031;-48
2022/06/27 08:11:19;;;;;;;5.18;0.98;;;;;;;17.34;50.31;100705.13;5110818;28;20089;-47
2022/06/27 08:13:47;;;;;;;10.40;1.42;;;;;;;17.36;51.25;100684.00;5111715;28;20092;-48
2022/06/27 08:16:14;;;;;;;7.65;1.25;;;;;;;17.60;50.59;100676.72;5111616;28;20044;-47
2022/06/27 08:18:43;;;;;;;7.57;1.30;;;;;;;17.93;49.32;100683.50;5111421;28;20134;-50
2022/06/27 08:21:10;;;;;;;4.78;1.10;;;;;;;18.24;49.51;100673.31;5109610;28;20030;-48
2022/06/27 08:23:36;;;;;;;5.18;1.00;;;;;;;18.74;47.94;100682.75;5109308;28;20037;-49
2022/06/27 08:26:06;;;;;;;6.97;1.63;;;;;;;18.17;48.59;100670.72;5110903;28;20030;-50
2022/06/27 08:28:33;;;;;;;5.82;1.17;;;;;;;18.61;48.36;100689.31;5110704;28;20077;-49
2022/06/27 08:31:01;;;;;;;4.25;1.48;;;;;;;18.30;48.25;100683.22;5110684;28;20042;-49
2022/06/27 08:33:30;;;;;;;11.52;1.33;;;;;;;18.15;49.20;100685.63;5110888;28;20035;-49
2022/06/27 08:35:58;;;;;;;6.07;1.40;;;;;;;18.56;47.76;100683.75;5110796;28;20111;-49
2022/06/27 08:38:24;;;;;;;7.32;1.15;;;;;;;18.56;47.11;100690.00;5109869;28;20059;-48
2022/06/27 08:40:51;;;;;;;5.05;1.05;;;;;;;18.62;47.00;100682.78;5110871;28;20031;-49
2022/06/27 08:43:17;;;;;;;3.70;1.10;;;;;;;19.00;47.08;100696.84;5092677;28;20027;-49
2022/06/27 08:45:46;;;;;;;5.65;1.10;;;;;;;19.30;45.99;100686.50;5110702;28;20030;-51
2022/06/27 08:48:13;;;;;;;8.40;1.02;;;;;;;19.38;46.06;100685.28;5110969;28;20027;-53
2022/06/27 08:50:39;;;;;;;4.95;1.08;;;;;;;19.11;46.68;100687.78;5109361;28;20032;-52
2022/06/27 08:53:05;;;;;;;5.78;0.95;;;;;;;18.57;47.76;100691.69;5109351;28;20031;-54
2022/06/27 08:55:33;;;;;;;7.47;1.42;;;;;;;18.17;48.03;100692.47;5111020;28;20027;-50
2022/06/27 08:58:10;;;;;;;5.68;1.38;;;;;;;17.39;48.75;100634.69;5108710;28;20027;-51
2022/06/27 09:00:41;;;;;;;10.40;1.50;;;;;;;17.51;49.94;100699.84;5110430;28;20063;-50
2022/06/27 09:03:08;;;;;;;8.88;1.25;;;;;;;17.27;51.26;100709.00;5109024;28;20164;-51
2022/06/27 09:05:34;;;;;;;5.18;1.05;;;;;;;16.97;53.84;100724.25;5109158;28;20055;-49
2022/06/27 09:08:03;;;;;;;6.25;1.20;;;;;;;16.78;56.51;100731.56;5110511;28;20080;-49
2022/06/27 09:10:35;;;;;;;9.55;1.23;;;;;;;16.67;58.18;100729.63;5110127;28;20039;-49
2022/06/27 09:13:08;;;;;;;7.65;1.45;;;;;;;16.77;59.21;100737.22;5111244;28;20096;-52
2022/06/27 09:15:56;;;;;;;12.60;1.17;;;;;;;16.89;59.76;100734.59;5116881;27;20034;-49
2022/06/27 09:18:25;;;;;;;8.77;1.38;;;;;;;17.00;58.48;100741.97;5115659;28;20028;-51
2022/06/27 09:20:57;;;;;;;5.80;1.02;;;;;;;17.08;58.84;100741.63;5115428;28;20103;-52
2022/06/27 09:23:47;;;;;;;5.88;1.20;;;;;;;17.46;58.19;100743.19;5116687;27;20027;-51
2022/06/27 09:26:20;;;;;;;7.32;1.00;;;;;;;17.64;57.13;100736.84;5101768;28;20047;-52
2022/06/27 09:28:53;;;;;;;6.03;1.08;;;;;;;17.89;57.33;100735.84;5116828;27;20027;-50
2022/06/27 09:31:31;;;;;;;7.50;1.17;;;;;;;17.79;56.39;100722.78;5116216;28;20114;-52
2022/06/27 09:34:19;;;;;;;5.68;0.90;;;;;;;17.63;55.82;100731.66;5115339;28;20408;-49
2022/06/27 09:36:50;;;;;;;6.57;1.20;;;;;;;17.35;55.62;100730.41;5117216;27;20031;-50
2022/06/27 09:39:19;;;;;;;6.45;1.20;;;;;;;17.16;55.94;100752.19;5117114;27;20102;-49
2022/06/27 09:41:54;;;;;;;4.68;0.95;;;;;;;16.95;56.53;100758.91;5116981;27;20428;-49
2022/06/27 09:44:24;;;;;;;3.85;1.08;;;;;;;16.85;57.29;100755.13;5116969;27;20392;-51
2022/06/27 09:46:58;;;;;;;6.57;1.55;;;;;;;16.74;59.08;100759.38;5117023;27;20039;-48
2022/06/27 09:49:29;;;;;;;4.65;1.00;;;;;;;16.56;58.80;100733.91;5117040;27;20535;-52
2022/06/27 09:51:56;;;;;;;5.18;1.23;;;;;;;16.82;59.04;100756.34;5116766;27;20031;-49
2022/06/27 09:54:23;;;;;;;2.33;0.95;;;;;;;16.98;58.49;100746.81;5115442;28;20034;-50
2022/06/27 09:56:50;;;;;;;6.28;1.38;;;;;;;17.10;58.45;100755.81;5116163;28;20080;-50
2022/06/27 09:59:17;;;;;;;3.35;0.80;;;;;;;17.18;58.14;100760.94;5099212;28;20054;-50
2022/06/27 10:01:43;;;;;;;5.85;1.02;;;;;;;17.03;58.49;100722.50;5116620;27;20024;-50
2022/06/27 10:04:10;;;;;;;3.45;1.17;;;;;;;17.44;59.46;100756.19;5116983;27;20430;-50
2022/06/27 10:06:40;;;;;;;2.78;1.00;;;;;;;17.62;58.01;100741.66;5116236;27;20116;-49
2022/06/27 10:09:08;;;;;;;3.47;1.20;;;;;;;18.05;55.72;100732.41;5114596;28;20471;-48
2022/06/27 10:11:36;;;;;;;3.22;0.95;;;;;;;18.64;56.20;100735.03;5116506;27;20039;-50
2022/06/27 10:14:20;;;;;;;3.67;1.20;;;;;;;19.05;54.59;100741.31;5116335;28;20042;-47
2022/06/27 10:16:57;;;;;;;1.85;0.75;;;;;;;19.36;52.99;100743.78;5116440;28;20031;-48
2022/06/27 10:19:26;;;;;;;3.72;0.70;;;;;;;19.18;52.37;100747.56;5116660;27;20107;-48
2022/06/27 10:21:53;;;;;;;3.20;0.52;;;;;;;18.85;52.31;100740.94;5098310;28;20027;-48
2022/06/27 10:24:32;;;;;;;1.40;0.70;;;;;;;18.36;53.55;100727.66;5097651;28;20031;-48
2022/06/27 10:27:02;;;;;;;1.30;0.60;;;;;;;18.28;53.77;100741.63;5111364;28;20039;-48
2022/06/27 10:29:33;;;;;;;1.80;0.63;;;;;;;18.06;55.10;100741.41;5111486;28;20106;-48
2022/06/27 10:32:02;;;;;;;5.97;1.00;;;;;;;17.89;55.35;100744.81;5112850;28;20110;-48
2022/06/27 10:35:05;;;;;;;5.80;0.73;;;;;;;17.86;55.16;100756.16;5112987;28;20036;-50
2022/06/27 10:37:35;;;;;;;4.45;0.80;;;;;;;17.73;55.32;100750.91;5111612;28;20370;-51
2022/06/27 10:40:40;;;;;;;3.80;0.75;;;;;;;17.50;55.96;100754.41;5113085;28;20057;-47
2022/06/27 10:43:06;;;;;;;2.53;0.60;;;;;;;17.42;55.97;100761.84;5068767;28;20425;-50
2022/06/27 10:45:32;;;;;;;2.80;0.75;;;;;;;17.37;56.67;100758.16;5111076;28;20046;-49
2022/06/27 10:48:01;;;;;;;3.22;0.70;;;;;;;17.36;56.46;100765.44;5112686;28;20384;-49
2022/06/27 10:50:39;;;;;;;3.53;0.90;;;;;;;17.44;56.63;100768.91;5112292;28;20046;-48
2022/06/27 10:53:25;;;;;;;7.78;1.00;;;;;;;17.39;57.46;100766.91;5112445;28;20034;-49
2022/06/27 10:55:52;;;;;;;5.10;0.80;;;;;;;17.47;56.81;100771.16;5111082;28;20076;-49
2022/06/27 10:58:21;;;;;;;2.70;0.90;;;;;;;17.50;57.11;100778.84;5112641;28;20031;-51
2022/06/27 11:00:48;;;;;;;4.60;0.95;;;;;;;17.51;57.03;100775.06;5112067;28;20028;-50
2022/06/27 11:03:24;;;;;;;2.05;1.00;;;;;;;17.56;57.02;100753.47;5112556;28;20051;-50
2022/06/27 11:05:58;;;;;;;5.13;0.95;;;;;;;17.86;55.67;100767.00;5112286;28;20133;-50
2022/06/27 11:08:25;;;;;;;3.47;0.85;;;;;;;18.01;55.21;100755.69;5112205;27;20038;-50
2022/06/27 11:10:52;;;;;;;3.40;0.80;;;;;;;18.26;54.68;100758.19;5111836;28;20051;-49
2022/06/27 11:13:40;;;;;;;1.75;0.60;;;;;;;18.35;54.19;100756.75;5111913;28;20092;-48
2022/06/27 11:16:07;;;;;;;2.28;0.95;;;;;;;18.50;53.58;100748.09;5097295;28;20032;-48
2022/06/27 11:18:43;;;;;;;1.38;0.65;;;;;;;18.86;53.03;100743.41;5112366;27;20079;-52
2022/06/27 11:21:11;;;;;;;1.60;0.60;;;;;;;19.02;52.29;100730.09;5110923;28;20447;-49
2022/06/27 11:23:59;;;;;;;1.33;0.75;;;;;;;19.09;51.92;100741.66;5110674;28;20043;-52
2022/06/27 11:26:30;;;;;;;2.28;0.50;;;;;;;19.02;51.76;100739.09;5110660;28;20386;-49
2022/06/27 11:32:16;;;;;;;2.10;0.80;;;;;;;18.76;51.87;100727.69;5110198;28;20367;-51
2022/06/27 11:34:47;;;;;;;0.77;0.63;;;;;;;18.93;51.75;100749.53;5111705;28;20111;-48